createdAt,value
2023-05-11T00:00:26.050Z,13.20
2023-05-11T00:02:54.547Z,11.77
2023-05-11T00:05:22.954Z,13.20
2023-05-11T00:07:51.291Z,13.95
2023-05-11T00:10:20.064Z,13.85
2023-05-11T00:12:48.628Z,12.95
2023-05-11T00:15:18.385Z,11.45
2023-05-11T00:17:46.838Z,8.15
2023-05-11T00:20:15.348Z,14.60
2023-05-11T00:22:44.971Z,12.85
2023-05-11T00:25:13.466Z,13.25
2023-05-11T00:27:45.864Z,12.43
2023-05-11T00:30:15.920Z,13.77
2023-05-11T00:32:46.095Z,12.88
2023-05-11T00:35:14.544Z,9.38
2023-05-11T00:37:42.962Z,9.40
2023-05-11T00:40:11.582Z,9.32
2023-05-11T00:42:39.994Z,13.32
2023-05-11T00:45:08.822Z,9.07
2023-05-11T00:47:37.927Z,9.43
2023-05-11T00:50:16.985Z,11.88
2023-05-11T00:52:45.689Z,10.15
2023-05-11T00:55:15.413Z,10.52
2023-05-11T00:57:43.805Z,9.27
2023-05-11T01:00:12.684Z,9.45
2023-05-11T01:02:41.615Z,11.75
2023-05-11T01:05:10.640Z,11.20
2023-05-11T01:07:42.767Z,7.78
2023-05-11T01:10:17.188Z,8.75
2023-05-11T01:12:49.813Z,11.90
2023-05-11T01:15:22.631Z,11.07
2023-05-11T01:17:53.564Z,10.95
2023-05-11T01:20:24.389Z,9.80
2023-05-11T01:23:13.150Z,9.75
2023-05-11T01:25:50.920Z,11.80
2023-05-11T01:28:26.022Z,10.93
2023-05-11T01:30:56.821Z,6.95
2023-05-11T01:33:28.141Z,7.55
2023-05-11T01:35:58.564Z,8.05
2023-05-11T01:38:28.923Z,8.25
2023-05-11T01:40:59.358Z,7.43
2023-05-11T01:43:28.606Z,10.05
2023-05-11T01:46:02.071Z,9.63
2023-05-11T01:48:32.991Z,9.93
2023-05-11T01:51:03.228Z,6.05
2023-05-11T01:53:33.520Z,8.55
2023-05-11T01:56:02.346Z,7.00
2023-05-11T01:58:31.017Z,5.22
2023-05-11T02:01:03.226Z,7.32
2023-05-11T02:03:33.173Z,8.95
2023-05-11T02:06:02.481Z,10.65
2023-05-11T02:08:31.237Z,10.82
2023-05-11T02:11:00.179Z,11.68
2023-05-11T02:13:29.528Z,9.52
2023-05-11T02:15:58.971Z,10.15
2023-05-11T02:18:30.225Z,6.70
2023-05-11T02:21:00.260Z,8.20
2023-05-11T02:23:29.113Z,11.07
2023-05-11T02:25:58.628Z,8.70
2023-05-11T02:28:27.044Z,9.63
2023-05-11T02:30:57.293Z,11.18
2023-05-11T02:33:32.773Z,10.63
2023-05-11T02:38:32.358Z,8.02
2023-05-11T02:41:02.588Z,9.25
2023-05-11T02:43:32.796Z,7.47
2023-05-11T02:46:02.498Z,11.02
2023-05-11T02:48:32.304Z,10.20
2023-05-11T02:51:02.219Z,11.02
2023-05-11T02:53:33.492Z,9.68
2023-05-11T02:56:02.373Z,9.63
2023-05-11T02:58:30.997Z,10.02
2023-05-11T03:01:00.189Z,10.38
2023-05-11T03:03:29.184Z,8.63
2023-05-11T03:05:57.623Z,8.60
2023-05-11T03:08:25.966Z,7.30
2023-05-11T03:10:55.830Z,6.22
2023-05-11T03:13:24.672Z,8.27
2023-05-11T03:15:53.584Z,8.38
2023-05-11T03:18:23.043Z,6.97
2023-05-11T03:20:52.185Z,8.02
2023-05-11T03:23:20.814Z,6.25
2023-05-11T03:25:49.448Z,5.32
2023-05-11T03:28:19.918Z,7.32
2023-05-11T03:30:48.492Z,8.68
2023-05-11T03:33:16.861Z,9.57
2023-05-11T03:35:45.598Z,7.03
2023-05-11T03:38:14.484Z,8.30
2023-05-11T03:40:43.735Z,6.72
2023-05-11T03:43:13.336Z,8.70
2023-05-11T03:45:44.685Z,9.07
2023-05-11T03:48:13.726Z,7.38
2023-05-11T03:50:42.465Z,8.90
2023-05-11T03:53:10.894Z,8.43
2023-05-11T03:55:39.519Z,9.00
2023-05-11T03:58:08.566Z,7.03
2023-05-11T04:00:39.612Z,7.75
2023-05-11T04:03:09.945Z,8.00
2023-05-11T04:05:38.470Z,6.45
2023-05-11T04:08:07.146Z,6.97
2023-05-11T04:10:35.599Z,7.97
2023-05-11T04:13:04.091Z,8.07
2023-05-11T04:15:32.432Z,7.80
2023-05-11T04:18:00.906Z,8.30
2023-05-11T04:20:30.719Z,6.30
2023-05-11T04:22:59.128Z,8.45
2023-05-11T04:25:27.624Z,8.13
2023-05-11T04:27:56.052Z,8.15
2023-05-11T04:30:24.519Z,7.80
2023-05-11T04:32:53.005Z,9.13
2023-05-11T04:35:21.997Z,8.52
2023-05-11T04:37:51.760Z,8.70
2023-05-11T04:40:20.538Z,8.90
2023-05-11T04:42:48.993Z,6.70
2023-05-11T04:45:17.812Z,9.15
2023-05-11T04:47:46.187Z,10.00
2023-05-11T04:50:14.642Z,9.63
2023-05-11T04:52:43.014Z,8.60
2023-05-11T04:55:12.822Z,10.18
2023-05-11T04:57:41.216Z,8.00
2023-05-11T05:00:10.364Z,9.18
2023-05-11T05:02:38.802Z,9.52
2023-05-11T05:05:07.627Z,9.63
2023-05-11T05:07:36.031Z,10.40
2023-05-11T05:10:08.830Z,10.80
2023-05-11T05:12:38.597Z,10.65
2023-05-11T05:15:07.473Z,7.68
2023-05-11T05:17:35.934Z,11.23
2023-05-11T05:20:04.525Z,7.35
2023-05-11T05:22:32.897Z,10.63
2023-05-11T05:25:01.480Z,9.18
2023-05-11T05:27:30.576Z,10.18
2023-05-11T05:30:01.455Z,7.15
2023-05-11T05:32:29.870Z,11.07
2023-05-11T05:34:58.259Z,9.98
2023-05-11T05:37:26.653Z,11.57
2023-05-11T05:39:55.028Z,11.20
2023-05-11T05:42:23.411Z,8.82
2023-05-11T05:44:52.310Z,9.93
2023-05-11T05:47:22.006Z,10.65
2023-05-11T05:49:50.438Z,9.20
2023-05-11T05:52:18.791Z,11.27
2023-05-11T05:54:47.161Z,9.55
2023-05-11T05:57:15.972Z,8.45
2023-05-11T05:59:44.445Z,9.85
2023-05-11T06:02:13.620Z,8.70
2023-05-11T06:04:43.827Z,7.22
2023-05-11T06:07:14.150Z,11.10
2023-05-11T06:09:42.490Z,11.18
2023-05-11T06:12:11.126Z,9.80
2023-05-11T06:14:39.464Z,11.43
2023-05-11T06:17:07.792Z,11.23
2023-05-11T06:19:36.169Z,12.55
2023-05-11T06:22:06.976Z,11.85
2023-05-11T06:24:35.691Z,11.85
2023-05-11T06:27:04.065Z,12.05
2023-05-11T06:29:32.417Z,11.50
2023-05-11T06:32:00.903Z,11.95
2023-05-11T06:34:29.522Z,12.18
2023-05-11T06:37:00.754Z,11.23
2023-05-11T06:39:30.681Z,11.00
2023-05-11T06:42:02.342Z,11.25
2023-05-11T06:44:32.604Z,12.20
2023-05-11T06:47:01.211Z,12.93
2023-05-11T06:49:29.814Z,12.18
2023-05-11T06:51:58.153Z,11.57
2023-05-11T06:54:26.485Z,12.25
2023-05-11T06:56:56.201Z,12.07
2023-05-11T06:59:25.112Z,12.07
2023-05-11T07:01:53.437Z,12.27
2023-05-11T07:04:21.805Z,11.95
2023-05-11T07:06:50.188Z,10.98
2023-05-11T07:09:18.694Z,10.60
2023-05-11T07:11:47.052Z,9.27
2023-05-11T07:14:16.913Z,9.80
2023-05-11T07:16:46.471Z,7.80
2023-05-11T07:19:15.024Z,8.35
2023-05-11T07:21:43.399Z,8.73
2023-05-11T07:24:11.809Z,8.55
2023-05-11T07:26:40.176Z,6.97
2023-05-11T07:29:08.589Z,7.40
2023-05-11T07:31:38.350Z,7.35
2023-05-11T07:34:06.741Z,8.32
2023-05-11T07:36:35.151Z,6.88
2023-05-11T07:39:03.516Z,7.85
2023-05-11T07:41:32.017Z,8.63
2023-05-11T07:44:02.679Z,8.55
2023-05-11T07:46:31.114Z,6.85
2023-05-11T07:49:14.568Z,8.80
2023-05-11T07:51:47.165Z,8.63
2023-05-11T07:54:15.529Z,9.57
2023-05-11T07:56:43.907Z,8.82
2023-05-11T07:59:12.249Z,7.93
2023-05-11T08:01:40.670Z,8.18
2023-05-11T08:04:10.457Z,8.95
2023-05-11T08:06:38.837Z,8.27
2023-05-11T08:09:07.290Z,7.90
2023-05-11T08:11:35.934Z,8.07
2023-05-11T08:14:05.290Z,7.78
2023-05-11T08:16:33.704Z,7.45
2023-05-11T08:19:03.392Z,7.32
2023-05-11T08:21:33.950Z,8.32
2023-05-11T08:24:02.310Z,8.43
2023-05-11T08:26:30.726Z,7.43
2023-05-11T08:28:59.084Z,7.63
2023-05-11T08:31:27.512Z,7.03
2023-05-11T08:33:56.129Z,7.80
2023-05-11T08:36:24.911Z,6.53
2023-05-11T08:38:59.005Z,7.72
2023-05-11T08:41:27.619Z,6.10
2023-05-11T08:43:56.532Z,7.68
2023-05-11T08:46:27.153Z,6.88
2023-05-11T08:48:55.899Z,7.30
2023-05-11T08:51:24.593Z,6.30
2023-05-11T08:53:53.221Z,6.10
2023-05-11T08:56:23.995Z,5.20
2023-05-11T08:58:54.753Z,4.95
2023-05-11T09:01:24.840Z,5.75
2023-05-11T09:03:53.486Z,6.00
2023-05-11T09:06:22.575Z,5.75
2023-05-11T09:08:50.997Z,6.22
2023-05-11T09:11:19.991Z,4.72
2023-05-11T09:13:49.813Z,5.25
2023-05-11T09:16:35.484Z,5.57
2023-05-11T09:19:05.451Z,5.55
2023-05-11T09:21:34.309Z,5.75
2023-05-11T09:24:04.501Z,5.97
2023-05-11T09:26:35.404Z,5.75
2023-05-11T09:29:05.461Z,5.22
2023-05-11T09:31:38.517Z,4.95
2023-05-11T09:34:11.070Z,5.25
2023-05-11T09:36:39.877Z,6.18
2023-05-11T09:39:15.553Z,4.55
2023-05-11T09:41:44.446Z,5.25
2023-05-11T09:44:15.246Z,4.95
2023-05-11T09:46:44.454Z,4.32
2023-05-11T09:49:13.617Z,4.95
2023-05-11T09:51:42.725Z,5.20
2023-05-11T09:54:18.773Z,3.85
2023-05-11T09:56:48.324Z,4.03
2023-05-11T09:59:18.820Z,4.22
2023-05-11T10:01:47.217Z,5.13
2023-05-11T10:06:50.476Z,3.88
2023-05-11T10:09:20.246Z,3.70
2023-05-11T10:11:48.669Z,3.65
2023-05-11T10:14:18.598Z,3.97
2023-05-11T10:16:48.086Z,3.40
2023-05-11T10:19:16.807Z,4.30
2023-05-11T10:21:45.315Z,4.53
2023-05-11T10:24:14.815Z,4.22
2023-05-11T10:26:43.558Z,3.95
2023-05-11T10:29:12.210Z,4.93
2023-05-11T10:31:42.073Z,4.15
2023-05-11T10:34:12.334Z,3.50
2023-05-11T10:36:40.886Z,4.22
2023-05-11T10:39:09.377Z,3.97
2023-05-11T10:41:43.461Z,4.60
2023-05-11T10:44:26.482Z,4.35
2023-05-11T10:47:02.501Z,4.43
2023-05-11T10:49:40.202Z,3.88
2023-05-11T10:52:29.593Z,3.55
2023-05-11T10:55:08.739Z,4.63
2023-05-11T10:57:47.801Z,4.53
2023-05-11T11:00:35.875Z,3.90
2023-05-11T11:03:12.505Z,3.30
2023-05-11T11:05:43.639Z,4.40
2023-05-11T11:08:12.134Z,4.45
2023-05-11T11:10:41.060Z,4.40
2023-05-11T11:13:10.451Z,3.80
2023-05-11T11:15:57.698Z,3.80
2023-05-11T11:18:28.089Z,3.50
2023-05-11T11:20:57.284Z,4.40
2023-05-11T11:23:44.140Z,3.88
2023-05-11T11:26:15.339Z,3.15
2023-05-11T11:29:02.618Z,3.83
2023-05-11T11:31:31.906Z,4.18
2023-05-11T11:34:21.750Z,3.55
2023-05-11T11:37:04.956Z,3.33
2023-05-11T11:39:53.681Z,3.13
2023-05-11T11:42:34.626Z,3.78
2023-05-11T11:45:17.974Z,3.25
2023-05-11T11:48:06.575Z,3.30
2023-05-11T11:50:39.340Z,2.90
2023-05-11T11:53:07.700Z,3.05
2023-05-11T11:55:49.100Z,3.00
2023-05-11T11:58:36.079Z,3.35
2023-05-11T12:01:05.687Z,2.97
2023-05-11T12:03:34.275Z,3.30
2023-05-11T12:06:06.337Z,3.22
2023-05-11T12:08:34.676Z,3.28
2023-05-11T12:11:03.566Z,2.90
2023-05-11T12:13:32.109Z,2.90
2023-05-11T12:16:10.293Z,3.28
2023-05-11T12:18:38.711Z,2.70
2023-05-11T12:21:08.558Z,2.90
2023-05-11T12:23:36.995Z,2.78
2023-05-11T12:26:05.654Z,2.95
2023-05-11T12:28:34.199Z,3.03
2023-05-11T12:31:02.569Z,2.75
2023-05-11T12:33:30.931Z,2.83
2023-05-11T12:35:59.292Z,2.50
2023-05-11T12:38:28.995Z,2.78
2023-05-11T12:40:57.379Z,2.50
2023-05-11T12:43:25.757Z,2.45
2023-05-11T12:45:54.235Z,2.85
2023-05-11T12:48:22.687Z,2.40
2023-05-11T12:50:50.753Z,2.88
2023-05-11T12:53:19.948Z,2.40
2023-05-11T12:55:59.108Z,2.72
2023-05-11T12:58:27.262Z,2.33
2023-05-11T13:00:56.878Z,2.38
2023-05-11T13:03:25.858Z,2.90
2023-05-11T13:05:54.393Z,2.17
2023-05-11T13:08:22.718Z,2.40
2023-05-11T13:10:52.169Z,2.65
2023-05-11T13:13:29.817Z,2.42
2023-05-11T13:15:58.050Z,2.35
2023-05-11T13:18:26.177Z,1.92
2023-05-11T13:21:06.689Z,2.17
2023-05-11T13:23:34.750Z,2.13
2023-05-11T13:26:04.317Z,2.30
2023-05-11T13:28:34.889Z,2.40
2023-05-11T13:31:03.190Z,2.78
2023-05-11T13:33:31.980Z,2.72
2023-05-11T13:36:00.199Z,2.35
2023-05-11T13:38:28.281Z,3.30
2023-05-11T13:40:56.343Z,2.40
2023-05-11T13:43:26.298Z,2.30
2023-05-11T13:45:54.422Z,2.30
2023-05-11T13:48:22.570Z,2.50
2023-05-11T13:50:50.770Z,2.55
2023-05-11T13:53:18.910Z,1.92
2023-05-11T13:55:47.005Z,1.95
2023-05-11T13:58:15.180Z,2.00
2023-05-11T14:00:53.346Z,2.00
2023-05-11T14:03:33.416Z,2.40
2023-05-11T14:06:01.643Z,2.03
2023-05-11T14:08:29.763Z,2.40
2023-05-11T14:10:57.801Z,3.35
2023-05-11T14:13:26.376Z,3.38
2023-05-11T14:15:55.900Z,3.00
2023-05-11T14:18:24.943Z,2.72
2023-05-11T14:20:53.242Z,2.13
2023-05-11T14:23:21.502Z,3.00
2023-05-11T14:25:49.682Z,2.72
2023-05-11T14:28:17.704Z,2.70
2023-05-11T14:30:45.840Z,2.20
2023-05-11T14:33:15.328Z,2.95
2023-05-11T14:35:43.433Z,3.35
2023-05-11T14:38:11.496Z,2.60
2023-05-11T14:40:39.611Z,2.80
2023-05-11T14:43:07.700Z,2.75
2023-05-11T14:45:35.889Z,2.33
2023-05-11T14:48:04.657Z,2.63
2023-05-11T14:50:34.720Z,3.20
2023-05-11T14:53:02.851Z,6.82
2023-05-11T14:55:31.439Z,14.05
2023-05-11T14:57:59.502Z,13.73
2023-05-11T15:00:27.684Z,12.90
2023-05-11T15:02:55.970Z,5.82
2023-05-11T15:05:24.334Z,9.07
2023-05-11T15:07:54.460Z,9.88
2023-05-11T15:10:22.616Z,12.07
2023-05-11T15:12:50.678Z,12.02
2023-05-11T15:15:19.030Z,9.48
2023-05-11T15:17:47.288Z,13.77
2023-05-11T15:20:15.535Z,12.30
2023-05-11T15:22:43.689Z,8.25
2023-05-11T15:25:13.315Z,8.18
2023-05-11T15:27:41.501Z,8.77
2023-05-11T15:30:10.744Z,7.18
2023-05-11T15:32:39.081Z,10.45
2023-05-11T15:35:07.858Z,8.43
2023-05-11T15:37:36.346Z,9.55
2023-05-11T15:40:05.490Z,8.77
2023-05-11T15:42:34.973Z,9.15
2023-05-11T15:45:03.097Z,7.90
2023-05-11T15:47:31.274Z,8.77
2023-05-11T15:49:59.361Z,8.15
2023-05-11T15:52:27.505Z,6.47
2023-05-11T15:54:55.567Z,8.23
2023-05-11T15:57:23.680Z,8.57
2023-05-11T15:59:53.254Z,6.22
2023-05-11T16:02:21.382Z,7.05
2023-05-11T16:04:49.557Z,8.27
2023-05-11T16:07:17.746Z,7.97
2023-05-11T16:09:45.872Z,7.63
2023-05-11T16:12:13.932Z,6.35
2023-05-11T16:14:42.043Z,8.15
2023-05-11T16:17:11.773Z,8.70
2023-05-11T16:19:39.977Z,8.02
2023-05-11T16:22:08.327Z,6.45
2023-05-11T16:24:36.503Z,6.72
2023-05-11T16:27:04.960Z,6.72
2023-05-11T16:29:33.055Z,7.80
2023-05-11T16:32:01.506Z,7.05
2023-05-11T16:34:35.218Z,7.15
2023-05-11T16:37:03.665Z,7.03
2023-05-11T16:39:32.041Z,6.10
2023-05-11T16:42:00.401Z,6.68
2023-05-11T16:44:28.805Z,5.93
2023-05-11T16:46:57.306Z,6.47
2023-05-11T16:49:25.894Z,6.28
2023-05-11T16:51:55.625Z,7.85
2023-05-11T16:54:24.065Z,6.22
2023-05-11T16:56:52.087Z,6.80
2023-05-11T16:59:20.511Z,8.63
2023-05-11T17:01:49.413Z,7.35
2023-05-11T17:04:17.929Z,6.97
2023-05-11T17:06:46.243Z,8.18
2023-05-11T17:09:15.714Z,7.70
2023-05-11T17:11:43.793Z,7.10
2023-05-11T17:14:12.099Z,6.80
2023-05-11T17:16:40.189Z,6.38
2023-05-11T17:19:08.331Z,6.13
2023-05-11T17:21:36.468Z,6.88
2023-05-11T17:24:04.720Z,7.70
2023-05-11T17:26:46.270Z,7.43
2023-05-11T17:29:15.866Z,6.93
2023-05-11T17:31:46.347Z,7.15
2023-05-11T17:34:14.887Z,5.68
2023-05-11T17:36:43.089Z,7.38
2023-05-11T17:39:11.408Z,6.60
2023-05-11T17:41:41.040Z,7.82
2023-05-11T17:44:09.271Z,8.15
2023-05-11T17:46:37.667Z,8.20
2023-05-11T17:49:06.579Z,7.55
2023-05-11T17:51:34.747Z,7.25
2023-05-11T17:54:02.856Z,6.78
2023-05-11T17:56:31.410Z,7.82
2023-05-11T17:59:00.950Z,7.72
2023-05-11T18:01:29.166Z,6.47
2023-05-11T18:03:59.393Z,5.55
2023-05-11T18:06:28.222Z,6.97
2023-05-11T18:08:56.620Z,6.53
2023-05-11T18:11:24.712Z,7.72
2023-05-11T18:13:52.924Z,8.13
2023-05-11T18:16:25.080Z,6.70
2023-05-11T18:18:53.579Z,8.43
2023-05-11T18:21:22.018Z,8.43
2023-05-11T18:23:50.378Z,8.45
2023-05-11T18:26:20.057Z,8.30
2023-05-11T18:28:48.400Z,6.03
2023-05-11T18:31:18.925Z,8.00
2023-05-11T18:33:49.115Z,7.55
2023-05-11T18:36:17.375Z,7.95
2023-05-11T18:38:45.715Z,5.15
2023-05-11T18:41:14.037Z,7.30
2023-05-11T18:43:44.285Z,6.10
2023-05-11T18:46:12.641Z,7.28
2023-05-11T18:48:40.988Z,7.50
2023-05-11T18:51:10.802Z,7.50
2023-05-11T18:53:38.871Z,5.93
2023-05-11T18:56:06.944Z,4.63
2023-05-11T18:58:35.052Z,4.40
2023-05-11T19:01:03.926Z,4.68
2023-05-11T19:03:32.377Z,7.18
2023-05-11T19:06:01.757Z,4.85
2023-05-11T19:08:31.858Z,5.38
2023-05-11T19:11:00.327Z,4.68
2023-05-11T19:13:28.905Z,4.90
2023-05-11T19:15:56.961Z,4.57
2023-05-11T19:18:25.596Z,6.45
2023-05-11T19:20:53.714Z,4.68
2023-05-11T19:23:21.842Z,4.70
2023-05-11T19:25:51.289Z,4.72
2023-05-11T19:28:19.482Z,5.00
2023-05-11T19:30:47.591Z,5.80
2023-05-11T19:33:15.851Z,6.68
2023-05-11T19:35:44.540Z,6.38
2023-05-11T19:38:12.647Z,6.03
2023-05-11T19:43:14.125Z,5.43
2023-05-11T19:45:43.604Z,7.43
2023-05-11T19:48:11.818Z,6.75
2023-05-11T19:50:39.941Z,4.97
2023-05-11T19:53:08.018Z,6.88
2023-05-11T19:55:36.157Z,6.30
2023-05-11T19:58:04.365Z,7.35
2023-05-11T20:00:34.277Z,5.72
2023-05-11T20:03:02.438Z,6.90
2023-05-11T20:05:30.572Z,5.18
2023-05-11T20:07:58.727Z,6.65
2023-05-11T20:10:26.995Z,6.57
2023-05-11T20:12:55.070Z,4.45
2023-05-11T20:15:23.303Z,10.50
2023-05-11T20:17:53.120Z,7.20
2023-05-11T20:20:21.686Z,10.80
2023-05-11T20:22:50.037Z,7.32
2023-05-11T20:25:18.972Z,9.40
2023-05-11T20:27:47.450Z,7.35
2023-05-11T20:30:16.327Z,5.13
2023-05-11T20:35:17.085Z,8.00
2023-05-11T20:37:45.358Z,10.32
2023-05-11T20:40:14.275Z,9.98
2023-05-11T20:42:42.320Z,8.55
2023-05-11T20:45:11.320Z,9.25
2023-05-11T20:47:39.465Z,12.25
2023-05-11T20:50:10.043Z,8.13
2023-05-11T20:52:39.625Z,7.57
2023-05-11T20:55:08.546Z,7.43
2023-05-11T20:57:36.988Z,9.93
2023-05-11T21:00:07.592Z,7.05
2023-05-11T21:02:36.077Z,7.60
2023-05-11T21:05:04.809Z,7.72
2023-05-11T21:07:32.875Z,8.88
2023-05-11T21:10:02.751Z,9.43
2023-05-11T21:12:30.890Z,11.88
2023-05-11T21:14:58.949Z,10.48
2023-05-11T21:17:27.080Z,9.20
2023-05-11T21:19:55.148Z,9.88
2023-05-11T21:22:23.227Z,10.40
2023-05-11T21:24:51.614Z,8.30
2023-05-11T21:27:21.046Z,10.63
2023-05-11T21:29:49.277Z,9.68
2023-05-11T21:32:17.372Z,10.93
2023-05-11T21:34:45.408Z,10.02
2023-05-11T21:37:14.734Z,9.48
2023-05-11T21:39:42.834Z,8.05
2023-05-11T21:42:10.976Z,5.63
2023-05-11T21:44:40.461Z,6.50
2023-05-11T21:47:08.637Z,10.63
2023-05-11T21:49:36.910Z,8.20
2023-05-11T21:52:06.642Z,6.80
2023-05-11T21:54:34.693Z,8.60
2023-05-11T21:57:03.722Z,9.50
2023-05-11T21:59:31.868Z,8.77
2023-05-11T22:02:01.665Z,7.15
2023-05-11T22:04:30.556Z,8.55
2023-05-11T22:07:01.359Z,8.27
2023-05-11T22:09:31.536Z,6.53
2023-05-11T22:11:59.774Z,6.30
2023-05-11T22:14:27.896Z,7.00
2023-05-11T22:16:56.051Z,7.43
2023-05-11T22:19:26.194Z,10.88
2023-05-11T22:21:54.309Z,6.50
2023-05-11T22:24:23.117Z,6.97
2023-05-11T22:26:51.513Z,7.78
2023-05-11T22:29:19.662Z,11.07
2023-05-11T22:31:49.046Z,10.13
2023-05-11T22:34:17.240Z,12.13
2023-05-11T22:36:46.794Z,7.82
2023-05-11T22:39:15.044Z,5.97
2023-05-11T22:41:43.114Z,5.90
2023-05-11T22:44:11.308Z,7.90
2023-05-11T22:46:39.382Z,6.25
2023-05-11T22:49:08.360Z,6.68
2023-05-11T22:51:36.439Z,9.68
2023-05-11T22:54:06.186Z,11.15
2023-05-11T22:56:34.250Z,11.27
2023-05-11T22:59:02.318Z,5.93
2023-05-11T23:01:30.530Z,7.82
2023-05-11T23:03:58.772Z,6.53
2023-05-11T23:06:26.913Z,7.70
2023-05-11T23:08:55.338Z,7.60
2023-05-11T23:11:24.730Z,6.63
2023-05-11T23:13:52.793Z,8.68
2023-05-11T23:16:20.876Z,6.63
2023-05-11T23:18:49.153Z,9.18
2023-05-11T23:21:17.901Z,6.93
2023-05-11T23:23:46.316Z,6.82
2023-05-11T23:26:14.892Z,6.97
2023-05-11T23:28:44.534Z,10.80
2023-05-11T23:31:12.701Z,9.73
2023-05-11T23:33:40.795Z,6.60
2023-05-11T23:36:10.180Z,11.80
2023-05-11T23:38:38.703Z,7.72
2023-05-11T23:41:07.094Z,9.05
2023-05-11T23:43:35.478Z,12.38
2023-05-11T23:46:05.229Z,8.13
2023-05-11T23:48:33.588Z,7.57
2023-05-11T23:51:01.984Z,8.48
2023-05-11T23:53:30.418Z,8.00
2023-05-11T23:55:58.760Z,9.02
2023-05-11T23:58:27.109Z,12.23
